New Ulm, MN

5:18 AM CDT on March 30, 2015 (GMT -0500)
Martin Luther College | | Change Station
CLOSE
Current Station
Personal Weather Station
Location: New Ulm, MN
Elevation: 980 ft
Nearby Weather Stations
Active Advisory: Fire Weather Warning

Elev 980 ft 44.31 °N, 94.47 °W | Updated 7 seconds ago

Clear
Clear
40.0 °F
Feels Like 35 °F
N
7.0
Wind Variable Wind from SW
Gusts 14.0 mph

Today
High -- | Low -- °F
--% Chance of Precip.
Yesterday
High -- | Low -- °F
Precip. -- in
7:03 AM 7:42 PM
Waxing Gibbous, 78% visible
Pressure 29.97 in
Visibility 10.0 miles
Clouds Clear
Windchill 35 °F
Dew Point 26 °F
Humidity 58%
Rainfall 0.00 in
Snow Depth Not available.
UV 0.0 out of 12
Pollen 3.90 out of 12
Air Quality Not available.
Flu Activity Not available.
METAR KULM 301014Z AUTO 23009KT 10SM CLR 03/M05 A2997 RMK AO2

More Conditions Fewer Conditions

Pressure 29.97 in
Visibility 10.0 miles
Clouds Clear
Windchill 35 °F
Dew Point 26 °F
Humidity 58%
Rainfall 0.00 in
Snow Depth Not available.
UV 0.0 out of 12
Pollen 3.90 out of 12
Air Quality Not available.
Flu Activity Not available.
METAR KULM 301014Z AUTO 23009KT 10SM CLR 03/M05 A2997 RMK AO2

More Conditions Fewer Conditions

10-Day Weather Forecast

Almanac

Astronomy

Mar. 30, 2015 Rise Set
Actual Time
Civil Twilight
Nautical Twilight
Astronomical Twilight
Moon
Length of Visible Light
Length of Day
Tomorrow will be .
, % of the Moon is Illuminated

Today's Extremes

State Highs State Lows

Community

WunderPhotos

Upload Photos

1,809,454 photos uploaded!

WunderBlogs® & News

Nearby

Air Quality

  Air Quality AQ Index Pollutant
Not available.

Snow Depth

Station Depth Elevation

Earthquake Activity

City Distance Mag. Time & Date
Minimum magnitude displayed is 2.5.

Coastal Water Temperatures

Place Temperature

Stations

Nearby Weather Stations

Station Location Temp. Windchill Dew Point Humidity Wind Precip. Elev Updated Type
                   
Fire Weather Warning
Statement as of 4:22 AM CDT on March 30, 2015

... Red flag warning in effect from noon today to 7 PM CDT this
evening for strong winds and low humidity for fire weather zones
064... 073... 074... 082 and 091...

The National Weather Service in Twin Cities/Chanhassen has issued
a red flag warning... which is in effect from noon today to 7 PM
CDT this evening.

* Affected area... fire weather zones 064... 073... 074... 082 and
091. Mainly south of a line from Granite Falls to New Ulm and
then west of a line from New Ulm to Fairmont.

* Wind... 25 to 35 mph out of the west northwest.

* Humidity... between 22 and 27 percent this afternoon.

* Impacts... any fires that develop will likely spread rapidly.
Outdoor burning is not recommended.

Precautionary/preparedness actions...

A red flag warning means that critical fire weather conditions
are either occurring now... or will shortly. A combination of
strong winds... low relative humidity... and warm temperatures can
contribute to extreme fire behavior.